sensor_id;sensor_type;location;lat;lon;timestamp;P1;durP1;ratioP1;P2;durP2;ratioP2
15764;SDS011;7983;50.744;7.086;2023-02-28T00:01:13;2.40;;;1.50;;
15764;SDS011;7983;50.744;7.086;2023-02-28T00:03:40;2.17;;;1.40;;
15764;SDS011;7983;50.744;7.086;2023-02-28T00:06:07;2.93;;;1.63;;
15764;SDS011;7983;50.744;7.086;2023-02-28T00:08:34;1.97;;;1.73;;
15764;SDS011;7983;50.744;7.086;2023-02-28T00:11:04;1.73;;;1.30;;
15764;SDS011;7983;50.744;7.086;2023-02-28T00:13:33;2.27;;;1.50;;
15764;SDS011;7983;50.744;7.086;2023-02-28T00:16:03;2.60;;;1.50;;
15764;SDS011;7983;50.744;7.086;2023-02-28T00:18:36;2.30;;;1.37;;
15764;SDS011;7983;50.744;7.086;2023-02-28T00:21:05;2.77;;;1.30;;
15764;SDS011;7983;50.744;7.086;2023-02-28T00:23:34;1.93;;;1.60;;
15764;SDS011;7983;50.744;7.086;2023-02-28T00:26:02;2.83;;;1.40;;
15764;SDS011;7983;50.744;7.086;2023-02-28T00:28:28;2.20;;;1.57;;
15764;SDS011;7983;50.744;7.086;2023-02-28T00:30:54;1.90;;;1.40;;
15764;SDS011;7983;50.744;7.086;2023-02-28T00:33:20;2.40;;;1.40;;
15764;SDS011;7983;50.744;7.086;2023-02-28T00:35:45;2.53;;;1.43;;
15764;SDS011;7983;50.744;7.086;2023-02-28T00:38:12;1.87;;;1.40;;
15764;SDS011;7983;50.744;7.086;2023-02-28T00:40:40;1.70;;;1.20;;
15764;SDS011;7983;50.744;7.086;2023-02-28T00:43:06;1.90;;;1.53;;
15764;SDS011;7983;50.744;7.086;2023-02-28T00:45:34;2.40;;;1.40;;
15764;SDS011;7983;50.744;7.086;2023-02-28T00:48:02;2.03;;;1.50;;
15764;SDS011;7983;50.744;7.086;2023-02-28T00:50:31;1.70;;;1.40;;
15764;SDS011;7983;50.744;7.086;2023-02-28T00:52:59;2.00;;;1.40;;
15764;SDS011;7983;50.744;7.086;2023-02-28T00:55:27;1.97;;;1.37;;
15764;SDS011;7983;50.744;7.086;2023-02-28T00:57:52;2.30;;;1.77;;
15764;SDS011;7983;50.744;7.086;2023-02-28T01:00:18;3.17;;;1.50;;
15764;SDS011;7983;50.744;7.086;2023-02-28T01:02:44;1.93;;;1.50;;
15764;SDS011;7983;50.744;7.086;2023-02-28T01:05:11;2.13;;;1.60;;
15764;SDS011;7983;50.744;7.086;2023-02-28T01:07:37;2.00;;;1.40;;
15764;SDS011;7983;50.744;7.086;2023-02-28T01:10:05;3.57;;;1.60;;
15764;SDS011;7983;50.744;7.086;2023-02-28T01:12:34;2.77;;;1.67;;
15764;SDS011;7983;50.744;7.086;2023-02-28T01:15:00;2.40;;;1.30;;
15764;SDS011;7983;50.744;7.086;2023-02-28T01:17:25;1.80;;;1.40;;
15764;SDS011;7983;50.744;7.086;2023-02-28T01:19:52;1.73;;;1.30;;
15764;SDS011;7983;50.744;7.086;2023-02-28T01:22:20;3.20;;;1.50;;
15764;SDS011;7983;50.744;7.086;2023-02-28T01:24:45;2.20;;;1.40;;
15764;SDS011;7983;50.744;7.086;2023-02-28T01:27:11;1.63;;;1.40;;
15764;SDS011;7983;50.744;7.086;2023-02-28T01:29:39;1.87;;;1.53;;
15764;SDS011;7983;50.744;7.086;2023-02-28T01:32:04;1.40;;;1.20;;
15764;SDS011;7983;50.744;7.086;2023-02-28T01:34:30;1.70;;;1.27;;
15764;SDS011;7983;50.744;7.086;2023-02-28T01:36:56;2.23;;;1.70;;
15764;SDS011;7983;50.744;7.086;2023-02-28T01:39:26;1.83;;;1.30;;
15764;SDS011;7983;50.744;7.086;2023-02-28T01:41:51;1.73;;;1.30;;
15764;SDS011;7983;50.744;7.086;2023-02-28T01:47:20;1.77;;;1.30;;
15764;SDS011;7983;50.744;7.086;2023-02-28T01:49:53;1.40;;;1.17;;
15764;SDS011;7983;50.744;7.086;2023-02-28T01:52:25;1.80;;;1.50;;
15764;SDS011;7983;50.744;7.086;2023-02-28T01:54:55;1.93;;;1.33;;
15764;SDS011;7983;50.744;7.086;2023-02-28T01:57:24;1.80;;;1.27;;
15764;SDS011;7983;50.744;7.086;2023-02-28T01:59:56;2.33;;;1.50;;
15764;SDS011;7983;50.744;7.086;2023-02-28T02:02:24;2.67;;;1.53;;
15764;SDS011;7983;50.744;7.086;2023-02-28T02:05:03;2.07;;;1.27;;
15764;SDS011;7983;50.744;7.086;2023-02-28T02:07:38;2.23;;;1.30;;
15764;SDS011;7983;50.744;7.086;2023-02-28T02:15:11;1.27;;;1.03;;
15764;SDS011;7983;50.744;7.086;2023-02-28T02:17:39;1.50;;;1.20;;
15764;SDS011;7983;50.744;7.086;2023-02-28T02:20:18;1.67;;;1.20;;
15764;SDS011;7983;50.744;7.086;2023-02-28T02:25:42;1.30;;;1.00;;
15764;SDS011;7983;50.744;7.086;2023-02-28T02:36:48;1.20;;;1.00;;
15764;SDS011;7983;50.744;7.086;2023-02-28T02:42:33;1.50;;;1.20;;
15764;SDS011;7983;50.744;7.086;2023-02-28T02:48:18;1.50;;;1.10;;
15764;SDS011;7983;50.744;7.086;2023-02-28T02:50:54;1.00;;;0.90;;
15764;SDS011;7983;50.744;7.086;2023-02-28T02:53:24;1.13;;;0.90;;
15764;SDS011;7983;50.744;7.086;2023-02-28T02:56:01;1.60;;;1.13;;
15764;SDS011;7983;50.744;7.086;2023-02-28T02:58:33;1.30;;;1.00;;
15764;SDS011;7983;50.744;7.086;2023-02-28T03:01:07;1.40;;;1.13;;
15764;SDS011;7983;50.744;7.086;2023-02-28T03:03:39;1.90;;;1.00;;
15764;SDS011;7983;50.744;7.086;2023-02-28T03:06:05;1.60;;;1.00;;
15764;SDS011;7983;50.744;7.086;2023-02-28T03:08:34;1.70;;;1.30;;
15764;SDS011;7983;50.744;7.086;2023-02-28T03:11:05;2.50;;;1.13;;
15764;SDS011;7983;50.744;7.086;2023-02-28T03:18:58;1.40;;;1.10;;
15764;SDS011;7983;50.744;7.086;2023-02-28T03:22:22;1.97;;;1.20;;
15764;SDS011;7983;50.744;7.086;2023-02-28T03:27:07;1.80;;;1.30;;
15764;SDS011;7983;50.744;7.086;2023-02-28T03:29:42;1.73;;;1.27;;
15764;SDS011;7983;50.744;7.086;2023-02-28T03:32:21;1.33;;;1.00;;
15764;SDS011;7983;50.744;7.086;2023-02-28T03:34:58;1.60;;;1.30;;
15764;SDS011;7983;50.744;7.086;2023-02-28T03:37:30;3.93;;;1.53;;
15764;SDS011;7983;50.744;7.086;2023-02-28T03:40:12;2.70;;;1.90;;
15764;SDS011;7983;50.744;7.086;2023-02-28T03:42:41;2.43;;;1.80;;
15764;SDS011;7983;50.744;7.086;2023-02-28T03:45:19;2.60;;;1.83;;
15764;SDS011;7983;50.744;7.086;2023-02-28T03:47:55;2.27;;;1.70;;
15764;SDS011;7983;50.744;7.086;2023-02-28T03:50:27;2.23;;;1.60;;
15764;SDS011;7983;50.744;7.086;2023-02-28T03:56:03;3.03;;;1.87;;
15764;SDS011;7983;50.744;7.086;2023-02-28T04:01:16;3.40;;;1.60;;
15764;SDS011;7983;50.744;7.086;2023-02-28T04:03:52;1.70;;;1.37;;
15764;SDS011;7983;50.744;7.086;2023-02-28T04:06:19;2.13;;;1.23;;
15764;SDS011;7983;50.744;7.086;2023-02-28T04:08:47;1.30;;;1.10;;
15764;SDS011;7983;50.744;7.086;2023-02-28T04:13:43;1.43;;;1.20;;
15764;SDS011;7983;50.744;7.086;2023-02-28T04:16:09;1.33;;;1.00;;
15764;SDS011;7983;50.744;7.086;2023-02-28T04:18:38;1.90;;;1.30;;
15764;SDS011;7983;50.744;7.086;2023-02-28T04:21:06;1.50;;;1.10;;
15764;SDS011;7983;50.744;7.086;2023-02-28T04:23:32;1.30;;;1.03;;
15764;SDS011;7983;50.744;7.086;2023-02-28T04:25:58;1.87;;;1.10;;
15764;SDS011;7983;50.744;7.086;2023-02-28T04:28:26;2.63;;;1.20;;
15764;SDS011;7983;50.744;7.086;2023-02-28T04:30:59;1.63;;;1.10;;
15764;SDS011;7983;50.744;7.086;2023-02-28T04:33:27;3.90;;;2.20;;
15764;SDS011;7983;50.744;7.086;2023-02-28T04:36:04;5.40;;;2.30;;
15764;SDS011;7983;50.744;7.086;2023-02-28T04:38:37;4.43;;;2.33;;
15764;SDS011;7983;50.744;7.086;2023-02-28T04:41:06;2.60;;;2.00;;
15764;SDS011;7983;50.744;7.086;2023-02-28T04:43:32;3.50;;;2.50;;
15764;SDS011;7983;50.744;7.086;2023-02-28T04:45:59;4.40;;;3.00;;
15764;SDS011;7983;50.744;7.086;2023-02-28T04:48:32;3.50;;;2.60;;
15764;SDS011;7983;50.744;7.086;2023-02-28T04:51:03;2.90;;;2.10;;
15764;SDS011;7983;50.744;7.086;2023-02-28T04:53:35;3.87;;;2.17;;
15764;SDS011;7983;50.744;7.086;2023-02-28T04:56:02;4.27;;;1.90;;
15764;SDS011;7983;50.744;7.086;2023-02-28T04:58:30;2.50;;;1.70;;
15764;SDS011;7983;50.744;7.086;2023-02-28T05:01:06;4.07;;;2.80;;
15764;SDS011;7983;50.744;7.086;2023-02-28T05:03:43;7.37;;;5.37;;
15764;SDS011;7983;50.744;7.086;2023-02-28T05:06:12;4.93;;;3.57;;
15764;SDS011;7983;50.744;7.086;2023-02-28T05:08:40;3.70;;;2.40;;
15764;SDS011;7983;50.744;7.086;2023-02-28T05:11:07;2.80;;;2.07;;
15764;SDS011;7983;50.744;7.086;2023-02-28T05:13:54;2.67;;;1.83;;
15764;SDS011;7983;50.744;7.086;2023-02-28T05:16:20;2.00;;;1.50;;
15764;SDS011;7983;50.744;7.086;2023-02-28T05:18:48;2.20;;;1.70;;
15764;SDS011;7983;50.744;7.086;2023-02-28T05:21:28;2.43;;;1.43;;
15764;SDS011;7983;50.744;7.086;2023-02-28T05:23:58;3.20;;;2.07;;
15764;SDS011;7983;50.744;7.086;2023-02-28T05:26:26;2.83;;;1.90;;
15764;SDS011;7983;50.744;7.086;2023-02-28T05:28:52;2.43;;;1.90;;
15764;SDS011;7983;50.744;7.086;2023-02-28T05:31:19;2.70;;;1.80;;
15764;SDS011;7983;50.744;7.086;2023-02-28T05:33:50;2.63;;;1.73;;
15764;SDS011;7983;50.744;7.086;2023-02-28T05:36:19;2.33;;;1.77;;
15764;SDS011;7983;50.744;7.086;2023-02-28T05:38:48;2.47;;;1.80;;
15764;SDS011;7983;50.744;7.086;2023-02-28T05:41:15;2.13;;;1.77;;
15764;SDS011;7983;50.744;7.086;2023-02-28T05:43:44;1.87;;;1.43;;
15764;SDS011;7983;50.744;7.086;2023-02-28T05:46:10;3.50;;;2.60;;
15764;SDS011;7983;50.744;7.086;2023-02-28T05:48:37;14.57;;;8.60;;
15764;SDS011;7983;50.744;7.086;2023-02-28T05:51:07;5.87;;;4.00;;
15764;SDS011;7983;50.744;7.086;2023-02-28T05:53:35;4.83;;;3.57;;
15764;SDS011;7983;50.744;7.086;2023-02-28T05:56:01;3.57;;;2.60;;
15764;SDS011;7983;50.744;7.086;2023-02-28T05:58:27;2.90;;;2.13;;
15764;SDS011;7983;50.744;7.086;2023-02-28T06:00:56;3.13;;;1.97;;
15764;SDS011;7983;50.744;7.086;2023-02-28T06:03:22;2.97;;;1.77;;
15764;SDS011;7983;50.744;7.086;2023-02-28T06:05:50;2.47;;;1.70;;
15764;SDS011;7983;50.744;7.086;2023-02-28T06:08:16;2.40;;;1.43;;
15764;SDS011;7983;50.744;7.086;2023-02-28T06:10:45;2.73;;;1.63;;
15764;SDS011;7983;50.744;7.086;2023-02-28T06:13:13;1.60;;;1.13;;
15764;SDS011;7983;50.744;7.086;2023-02-28T06:15:44;1.77;;;1.47;;
15764;SDS011;7983;50.744;7.086;2023-02-28T06:18:09;1.70;;;1.57;;
15764;SDS011;7983;50.744;7.086;2023-02-28T06:20:35;2.00;;;1.60;;
15764;SDS011;7983;50.744;7.086;2023-02-28T06:23:03;1.70;;;1.40;;
15764;SDS011;7983;50.744;7.086;2023-02-28T06:25:28;1.90;;;1.47;;
15764;SDS011;7983;50.744;7.086;2023-02-28T06:27:57;3.13;;;2.20;;
15764;SDS011;7983;50.744;7.086;2023-02-28T06:30:23;2.00;;;1.60;;
15764;SDS011;7983;50.744;7.086;2023-02-28T06:32:53;2.07;;;1.60;;
15764;SDS011;7983;50.744;7.086;2023-02-28T06:35:24;1.77;;;1.40;;
15764;SDS011;7983;50.744;7.086;2023-02-28T06:37:50;2.10;;;1.40;;
15764;SDS011;7983;50.744;7.086;2023-02-28T06:40:17;3.67;;;1.83;;
15764;SDS011;7983;50.744;7.086;2023-02-28T06:42:43;2.00;;;1.70;;
15764;SDS011;7983;50.744;7.086;2023-02-28T06:45:09;2.60;;;1.60;;
15764;SDS011;7983;50.744;7.086;2023-02-28T06:47:36;3.63;;;1.60;;
15764;SDS011;7983;50.744;7.086;2023-02-28T06:50:09;2.73;;;1.50;;
15764;SDS011;7983;50.744;7.086;2023-02-28T06:52:37;2.27;;;1.63;;
15764;SDS011;7983;50.744;7.086;2023-02-28T06:55:06;1.97;;;1.50;;
15764;SDS011;7983;50.744;7.086;2023-02-28T06:57:32;3.60;;;1.80;;
15764;SDS011;7983;50.744;7.086;2023-02-28T07:00:04;2.00;;;1.53;;
15764;SDS011;7983;50.744;7.086;2023-02-28T07:02:32;1.50;;;1.40;;
15764;SDS011;7983;50.744;7.086;2023-02-28T07:05:00;1.70;;;1.60;;
15764;SDS011;7983;50.744;7.086;2023-02-28T07:07:26;2.43;;;1.50;;
15764;SDS011;7983;50.744;7.086;2023-02-28T07:09:51;1.80;;;1.43;;
15764;SDS011;7983;50.744;7.086;2023-02-28T07:12:17;5.17;;;1.67;;
15764;SDS011;7983;50.744;7.086;2023-02-28T07:14:43;3.17;;;1.70;;
15764;SDS011;7983;50.744;7.086;2023-02-28T07:17:09;2.70;;;1.90;;
15764;SDS011;7983;50.744;7.086;2023-02-28T07:19:37;2.30;;;1.53;;
15764;SDS011;7983;50.744;7.086;2023-02-28T07:22:03;2.43;;;1.70;;
15764;SDS011;7983;50.744;7.086;2023-02-28T07:24:29;2.20;;;1.73;;
15764;SDS011;7983;50.744;7.086;2023-02-28T07:26:55;1.93;;;1.70;;
15764;SDS011;7983;50.744;7.086;2023-02-28T07:29:21;2.33;;;1.70;;
15764;SDS011;7983;50.744;7.086;2023-02-28T07:31:47;1.93;;;1.50;;
15764;SDS011;7983;50.744;7.086;2023-02-28T07:34:15;3.83;;;1.90;;
15764;SDS011;7983;50.744;7.086;2023-02-28T07:36:40;1.80;;;1.47;;
15764;SDS011;7983;50.744;7.086;2023-02-28T07:39:06;3.50;;;1.80;;
15764;SDS011;7983;50.744;7.086;2023-02-28T07:41:34;2.00;;;1.60;;
15764;SDS011;7983;50.744;7.086;2023-02-28T07:44:02;2.80;;;1.70;;
15764;SDS011;7983;50.744;7.086;2023-02-28T07:46:28;2.00;;;1.60;;
15764;SDS011;7983;50.744;7.086;2023-02-28T07:48:59;1.90;;;1.70;;
15764;SDS011;7983;50.744;7.086;2023-02-28T07:51:27;2.40;;;1.73;;
15764;SDS011;7983;50.744;7.086;2023-02-28T07:53:54;2.07;;;1.70;;
15764;SDS011;7983;50.744;7.086;2023-02-28T07:56:19;3.57;;;2.10;;
15764;SDS011;7983;50.744;7.086;2023-02-28T07:58:45;2.00;;;1.57;;
15764;SDS011;7983;50.744;7.086;2023-02-28T08:01:13;2.70;;;1.70;;
15764;SDS011;7983;50.744;7.086;2023-02-28T08:03:39;2.13;;;1.80;;
15764;SDS011;7983;50.744;7.086;2023-02-28T08:06:05;1.93;;;1.73;;
15764;SDS011;7983;50.744;7.086;2023-02-28T08:08:32;1.90;;;1.70;;
15764;SDS011;7983;50.744;7.086;2023-02-28T08:11:01;2.07;;;1.70;;
15764;SDS011;7983;50.744;7.086;2023-02-28T08:13:28;2.73;;;1.80;;
15764;SDS011;7983;50.744;7.086;2023-02-28T08:15:56;2.90;;;2.23;;
15764;SDS011;7983;50.744;7.086;2023-02-28T08:18:22;2.47;;;2.17;;
15764;SDS011;7983;50.744;7.086;2023-02-28T08:20:50;2.17;;;1.70;;
15764;SDS011;7983;50.744;7.086;2023-02-28T08:23:18;4.67;;;2.00;;
15764;SDS011;7983;50.744;7.086;2023-02-28T08:25:44;2.77;;;2.00;;
15764;SDS011;7983;50.744;7.086;2023-02-28T08:28:10;2.53;;;2.10;;
15764;SDS011;7983;50.744;7.086;2023-02-28T08:30:35;2.20;;;2.00;;
15764;SDS011;7983;50.744;7.086;2023-02-28T08:33:02;2.23;;;1.80;;
15764;SDS011;7983;50.744;7.086;2023-02-28T08:35:27;3.33;;;1.80;;
15764;SDS011;7983;50.744;7.086;2023-02-28T08:37:53;2.17;;;1.90;;
15764;SDS011;7983;50.744;7.086;2023-02-28T08:40:18;2.93;;;1.87;;
15764;SDS011;7983;50.744;7.086;2023-02-28T08:42:47;2.43;;;1.93;;
15764;SDS011;7983;50.744;7.086;2023-02-28T08:45:15;2.53;;;1.90;;
15764;SDS011;7983;50.744;7.086;2023-02-28T08:47:41;2.50;;;2.10;;
15764;SDS011;7983;50.744;7.086;2023-02-28T08:50:09;2.80;;;1.90;;
15764;SDS011;7983;50.744;7.086;2023-02-28T08:52:41;4.20;;;2.30;;
15764;SDS011;7983;50.744;7.086;2023-02-28T08:55:08;2.93;;;2.30;;
15764;SDS011;7983;50.744;7.086;2023-02-28T08:57:34;3.13;;;2.07;;
15764;SDS011;7983;50.744;7.086;2023-02-28T09:00:00;2.37;;;1.87;;
15764;SDS011;7983;50.744;7.086;2023-02-28T09:02:29;2.10;;;1.60;;
15764;SDS011;7983;50.744;7.086;2023-02-28T09:04:56;2.73;;;1.87;;
15764;SDS011;7983;50.744;7.086;2023-02-28T09:07:23;1.73;;;1.40;;
15764;SDS011;7983;50.744;7.086;2023-02-28T09:09:51;2.00;;;1.33;;
15764;SDS011;7983;50.744;7.086;2023-02-28T09:12:26;2.43;;;1.50;;
15764;SDS011;7983;50.744;7.086;2023-02-28T09:14:56;1.80;;;1.40;;
15764;SDS011;7983;50.744;7.086;2023-02-28T09:17:22;1.93;;;1.50;;
15764;SDS011;7983;50.744;7.086;2023-02-28T09:19:50;1.30;;;1.20;;
15764;SDS011;7983;50.744;7.086;2023-02-28T09:22:16;1.87;;;1.40;;
15764;SDS011;7983;50.744;7.086;2023-02-28T09:24:41;2.07;;;1.40;;
15764;SDS011;7983;50.744;7.086;2023-02-28T09:27:07;1.73;;;1.30;;
15764;SDS011;7983;50.744;7.086;2023-02-28T09:29:33;2.40;;;1.40;;
15764;SDS011;7983;50.744;7.086;2023-02-28T09:32:02;2.20;;;1.30;;
15764;SDS011;7983;50.744;7.086;2023-02-28T09:34:33;2.20;;;1.50;;
15764;SDS011;7983;50.744;7.086;2023-02-28T09:37:02;1.80;;;1.30;;
15764;SDS011;7983;50.744;7.086;2023-02-28T09:39:30;2.00;;;1.33;;
15764;SDS011;7983;50.744;7.086;2023-02-28T09:41:56;1.70;;;1.50;;
15764;SDS011;7983;50.744;7.086;2023-02-28T09:44:26;1.93;;;1.50;;
15764;SDS011;7983;50.744;7.086;2023-02-28T09:48:04;2.07;;;1.60;;
15764;SDS011;7983;50.744;7.086;2023-02-28T09:52:48;1.37;;;1.10;;
15764;SDS011;7983;50.744;7.086;2023-02-28T09:55:22;1.27;;;1.13;;
15764;SDS011;7983;50.744;7.086;2023-02-28T09:58:20;1.40;;;1.30;;
15764;SDS011;7983;50.744;7.086;2023-02-28T10:01:02;1.50;;;1.30;;
15764;SDS011;7983;50.744;7.086;2023-02-28T10:03:54;1.40;;;1.30;;
15764;SDS011;7983;50.744;7.086;2023-02-28T10:06:28;2.53;;;1.50;;
15764;SDS011;7983;50.744;7.086;2023-02-28T10:09:03;1.80;;;1.40;;
15764;SDS011;7983;50.744;7.086;2023-02-28T10:11:34;1.50;;;1.40;;
15764;SDS011;7983;50.744;7.086;2023-02-28T10:14:04;1.83;;;1.27;;
15764;SDS011;7983;50.744;7.086;2023-02-28T10:16:40;1.40;;;1.20;;
15764;SDS011;7983;50.744;7.086;2023-02-28T10:19:14;1.97;;;1.40;;
15764;SDS011;7983;50.744;7.086;2023-02-28T10:21:59;1.97;;;1.30;;
15764;SDS011;7983;50.744;7.086;2023-02-28T10:26:56;2.23;;;1.50;;
15764;SDS011;7983;50.744;7.086;2023-02-28T10:29:25;2.17;;;1.20;;
15764;SDS011;7983;50.744;7.086;2023-02-28T10:31:52;1.50;;;1.30;;
15764;SDS011;7983;50.744;7.086;2023-02-28T10:34:18;1.23;;;1.00;;
15764;SDS011;7983;50.744;7.086;2023-02-28T10:36:44;1.27;;;1.13;;
15764;SDS011;7983;50.744;7.086;2023-02-28T10:39:52;2.40;;;1.50;;
15764;SDS011;7983;50.744;7.086;2023-02-28T10:42:03;1.73;;;1.27;;
15764;SDS011;7983;50.744;7.086;2023-02-28T10:44:31;1.63;;;1.40;;
15764;SDS011;7983;50.744;7.086;2023-02-28T10:46:57;1.60;;;1.37;;
15764;SDS011;7983;50.744;7.086;2023-02-28T10:49:24;1.60;;;1.47;;
15764;SDS011;7983;50.744;7.086;2023-02-28T10:51:57;2.07;;;1.40;;
15764;SDS011;7983;50.744;7.086;2023-02-28T10:54:31;1.40;;;1.30;;
15764;SDS011;7983;50.744;7.086;2023-02-28T10:59:42;1.33;;;1.23;;
15764;SDS011;7983;50.744;7.086;2023-02-28T11:04:59;1.98;;;1.30;;
15764;SDS011;7983;50.744;7.086;2023-02-28T11:07:27;2.00;;;1.50;;
15764;SDS011;7983;50.744;7.086;2023-02-28T11:10:00;3.47;;;1.60;;
15764;SDS011;7983;50.744;7.086;2023-02-28T11:12:28;1.67;;;1.40;;
15764;SDS011;7983;50.744;7.086;2023-02-28T11:15:00;1.58;;;1.30;;
15764;SDS011;7983;50.744;7.086;2023-02-28T11:17:34;1.55;;;1.10;;
15764;SDS011;7983;50.744;7.086;2023-02-28T11:20:02;1.60;;;1.35;;
15764;SDS011;7983;50.744;7.086;2023-02-28T11:22:33;1.88;;;1.45;;
15764;SDS011;7983;50.744;7.086;2023-02-28T11:25:09;1.58;;;1.30;;
15764;SDS011;7983;50.744;7.086;2023-02-28T11:32:53;1.98;;;1.45;;
15764;SDS011;7983;50.744;7.086;2023-02-28T11:37:53;1.30;;;1.20;;
15764;SDS011;7983;50.744;7.086;2023-02-28T11:40:27;2.10;;;1.60;;
15764;SDS011;7983;50.744;7.086;2023-02-28T12:12:20;1.83;;;1.50;;
15764;SDS011;7983;50.744;7.086;2023-02-28T12:28:51;1.60;;;1.30;;
15764;SDS011;7983;50.744;7.086;2023-02-28T12:31:31;1.70;;;1.33;;
15764;SDS011;7983;50.744;7.086;2023-02-28T12:34:03;1.83;;;1.35;;
15764;SDS011;7983;50.744;7.086;2023-02-28T12:36:40;2.10;;;1.40;;
15764;SDS011;7983;50.744;7.086;2023-02-28T12:39:17;1.60;;;1.50;;
15764;SDS011;7983;50.744;7.086;2023-02-28T12:41:56;1.63;;;1.38;;
15764;SDS011;7983;50.744;7.086;2023-02-28T12:44:34;1.50;;;1.40;;
15764;SDS011;7983;50.744;7.086;2023-02-28T12:47:04;1.95;;;1.45;;
15764;SDS011;7983;50.744;7.086;2023-02-28T12:49:36;1.40;;;1.30;;
15764;SDS011;7983;50.744;7.086;2023-02-28T12:52:07;1.77;;;1.42;;
15764;SDS011;7983;50.744;7.086;2023-02-28T12:54:39;1.67;;;1.52;;
15764;SDS011;7983;50.744;7.086;2023-02-28T12:59:57;2.00;;;1.60;;
15764;SDS011;7983;50.744;7.086;2023-02-28T13:05:16;1.67;;;1.35;;
15764;SDS011;7983;50.744;7.086;2023-02-28T13:10:49;2.15;;;1.48;;
15764;SDS011;7983;50.744;7.086;2023-02-28T13:13:20;1.58;;;1.40;;
15764;SDS011;7983;50.744;7.086;2023-02-28T13:18:46;1.85;;;1.35;;
15764;SDS011;7983;50.744;7.086;2023-02-28T13:21:22;2.10;;;1.50;;
15764;SDS011;7983;50.744;7.086;2023-02-28T13:27:10;1.98;;;1.40;;
15764;SDS011;7983;50.744;7.086;2023-02-28T13:29:37;1.80;;;1.50;;
15764;SDS011;7983;50.744;7.086;2023-02-28T13:34:38;2.25;;;1.50;;
15764;SDS011;7983;50.744;7.086;2023-02-28T13:39:51;2.28;;;1.50;;
15764;SDS011;7983;50.744;7.086;2023-02-28T13:56:23;2.97;;;2.10;;
15764;SDS011;7983;50.744;7.086;2023-02-28T13:58:32;2.63;;;2.10;;
15764;SDS011;7983;50.744;7.086;2023-02-28T14:07:25;2.55;;;1.88;;
15764;SDS011;7983;50.744;7.086;2023-02-28T14:09:57;2.05;;;1.63;;
15764;SDS011;7983;50.744;7.086;2023-02-28T14:17:53;2.42;;;1.60;;
15764;SDS011;7983;50.744;7.086;2023-02-28T14:20:25;3.10;;;1.70;;
15764;SDS011;7983;50.744;7.086;2023-02-28T14:23:12;2.22;;;1.73;;
15764;SDS011;7983;50.744;7.086;2023-02-28T14:31:15;2.90;;;2.00;;
15764;SDS011;7983;50.744;7.086;2023-02-28T14:33:45;2.30;;;1.70;;
15764;SDS011;7983;50.744;7.086;2023-02-28T14:39:10;2.20;;;1.70;;
15764;SDS011;7983;50.744;7.086;2023-02-28T14:41:40;1.92;;;1.73;;
15764;SDS011;7983;50.744;7.086;2023-02-28T14:44:17;2.10;;;1.58;;
15764;SDS011;7983;50.744;7.086;2023-02-28T14:46:46;2.30;;;1.80;;
15764;SDS011;7983;50.744;7.086;2023-02-28T14:49:16;2.00;;;1.70;;
15764;SDS011;7983;50.744;7.086;2023-02-28T14:54:40;2.20;;;1.70;;
15764;SDS011;7983;50.744;7.086;2023-02-28T15:00:14;2.63;;;2.08;;
15764;SDS011;7983;50.744;7.086;2023-02-28T15:02:45;2.50;;;1.85;;
15764;SDS011;7983;50.744;7.086;2023-02-28T15:07:43;3.10;;;2.17;;
15764;SDS011;7983;50.744;7.086;2023-02-28T15:12:45;2.55;;;1.73;;
15764;SDS011;7983;50.744;7.086;2023-02-28T15:15:17;2.10;;;1.90;;
15764;SDS011;7983;50.744;7.086;2023-02-28T15:17:45;2.90;;;1.70;;
15764;SDS011;7983;50.744;7.086;2023-02-28T15:20:15;2.10;;;1.60;;
15764;SDS011;7983;50.744;7.086;2023-02-28T15:22:43;2.58;;;1.95;;
15764;SDS011;7983;50.744;7.086;2023-02-28T15:25:14;2.15;;;1.90;;
15764;SDS011;7983;50.744;7.086;2023-02-28T15:27:47;3.33;;;1.90;;
15764;SDS011;7983;50.744;7.086;2023-02-28T15:30:34;2.40;;;1.90;;
15764;SDS011;7983;50.744;7.086;2023-02-28T15:33:23;2.60;;;2.00;;
15764;SDS011;7983;50.744;7.086;2023-02-28T15:36:03;2.60;;;2.00;;
15764;SDS011;7983;50.744;7.086;2023-02-28T15:38:39;3.78;;;2.00;;
15764;SDS011;7983;50.744;7.086;2023-02-28T15:41:05;2.05;;;1.80;;
15764;SDS011;7983;50.744;7.086;2023-02-28T15:43:37;2.83;;;1.83;;
15764;SDS011;7983;50.744;7.086;2023-02-28T15:48:52;2.63;;;1.73;;
15764;SDS011;7983;50.744;7.086;2023-02-28T15:51:24;3.45;;;1.80;;
15764;SDS011;7983;50.744;7.086;2023-02-28T15:54:04;2.20;;;2.00;;
15764;SDS011;7983;50.744;7.086;2023-02-28T15:56:37;2.30;;;2.10;;
15764;SDS011;7983;50.744;7.086;2023-02-28T15:59:14;2.30;;;2.10;;
15764;SDS011;7983;50.744;7.086;2023-02-28T16:07:32;3.10;;;2.35;;
15764;SDS011;7983;50.744;7.086;2023-02-28T16:10:03;5.10;;;2.42;;
15764;SDS011;7983;50.744;7.086;2023-02-28T16:12:31;2.58;;;2.13;;
15764;SDS011;7983;50.744;7.086;2023-02-28T16:15:00;2.63;;;1.92;;
15764;SDS011;7983;50.744;7.086;2023-02-28T16:17:34;2.40;;;2.00;;
15764;SDS011;7983;50.744;7.086;2023-02-28T16:20:11;2.50;;;2.20;;
15764;SDS011;7983;50.744;7.086;2023-02-28T16:22:41;2.15;;;1.88;;
15764;SDS011;7983;50.744;7.086;2023-02-28T16:25:10;3.00;;;2.33;;
15764;SDS011;7983;50.744;7.086;2023-02-28T16:27:43;2.97;;;2.10;;
15764;SDS011;7983;50.744;7.086;2023-02-28T16:30:18;2.70;;;2.10;;
15764;SDS011;7983;50.744;7.086;2023-02-28T16:32:46;3.10;;;1.90;;
15764;SDS011;7983;50.744;7.086;2023-02-28T16:35:14;2.00;;;1.70;;
15764;SDS011;7983;50.744;7.086;2023-02-28T16:37:42;3.30;;;2.10;;
15764;SDS011;7983;50.744;7.086;2023-02-28T16:40:13;2.73;;;2.00;;
15764;SDS011;7983;50.744;7.086;2023-02-28T16:42:40;2.20;;;1.90;;
15764;SDS011;7983;50.744;7.086;2023-02-28T16:45:18;2.90;;;1.70;;
15764;SDS011;7983;50.744;7.086;2023-02-28T16:47:46;1.93;;;1.70;;
15764;SDS011;7983;50.744;7.086;2023-02-28T16:50:13;2.20;;;1.90;;
15764;SDS011;7983;50.744;7.086;2023-02-28T16:52:45;2.40;;;1.87;;
15764;SDS011;7983;50.744;7.086;2023-02-28T16:55:12;2.40;;;1.67;;
15764;SDS011;7983;50.744;7.086;2023-02-28T16:57:40;1.97;;;1.77;;
15764;SDS011;7983;50.744;7.086;2023-02-28T17:00:11;2.53;;;1.57;;
15764;SDS011;7983;50.744;7.086;2023-02-28T17:02:40;3.47;;;1.60;;
15764;SDS011;7983;50.744;7.086;2023-02-28T17:05:08;2.27;;;1.70;;
15764;SDS011;7983;50.744;7.086;2023-02-28T17:07:41;2.93;;;1.90;;
15764;SDS011;7983;50.744;7.086;2023-02-28T17:12:44;2.10;;;1.80;;
15764;SDS011;7983;50.744;7.086;2023-02-28T17:15:13;2.33;;;1.70;;
15764;SDS011;7983;50.744;7.086;2023-02-28T17:17:40;3.00;;;1.90;;
15764;SDS011;7983;50.744;7.086;2023-02-28T17:20:06;2.03;;;1.80;;
15764;SDS011;7983;50.744;7.086;2023-02-28T17:22:37;2.33;;;1.70;;
15764;SDS011;7983;50.744;7.086;2023-02-28T17:25:03;2.17;;;1.90;;
15764;SDS011;7983;50.744;7.086;2023-02-28T17:27:30;3.60;;;2.13;;
15764;SDS011;7983;50.744;7.086;2023-02-28T17:29:56;2.63;;;1.87;;
15764;SDS011;7983;50.744;7.086;2023-02-28T17:32:24;2.57;;;2.03;;
15764;SDS011;7983;50.744;7.086;2023-02-28T17:34:50;2.73;;;2.10;;
15764;SDS011;7983;50.744;7.086;2023-02-28T17:37:16;2.73;;;2.10;;
15764;SDS011;7983;50.744;7.086;2023-02-28T17:39:42;3.07;;;1.93;;
15764;SDS011;7983;50.744;7.086;2023-02-28T17:42:07;3.27;;;2.00;;
15764;SDS011;7983;50.744;7.086;2023-02-28T17:44:33;2.63;;;2.17;;
15764;SDS011;7983;50.744;7.086;2023-02-28T17:47:02;3.73;;;2.40;;
15764;SDS011;7983;50.744;7.086;2023-02-28T17:49:28;7.27;;;4.80;;
15764;SDS011;7983;50.744;7.086;2023-02-28T17:51:54;4.57;;;3.03;;
15764;SDS011;7983;50.744;7.086;2023-02-28T17:54:19;3.20;;;2.53;;
15764;SDS011;7983;50.744;7.086;2023-02-28T17:56:47;3.17;;;2.40;;
15764;SDS011;7983;50.744;7.086;2023-02-28T17:59:18;2.60;;;2.20;;
15764;SDS011;7983;50.744;7.086;2023-02-28T18:01:43;3.97;;;2.40;;
15764;SDS011;7983;50.744;7.086;2023-02-28T18:04:10;3.10;;;2.20;;
15764;SDS011;7983;50.744;7.086;2023-02-28T18:06:41;3.30;;;2.53;;
15764;SDS011;7983;50.744;7.086;2023-02-28T18:09:15;10.13;;;6.50;;
15764;SDS011;7983;50.744;7.086;2023-02-28T18:11:49;7.10;;;5.13;;
15764;SDS011;7983;50.744;7.086;2023-02-28T18:14:21;7.17;;;4.67;;
15764;SDS011;7983;50.744;7.086;2023-02-28T18:16:53;5.63;;;3.50;;